Time;durP1;ratioP1;P1;durP2;ratioP2;P2;SDS_P1;SDS_P2;PMS_P1;PMS_P2;Temp;Humidity;BMP_temperature;BMP_pressure;BME280_temperature;BME280_humidity;BME280_pressure;Samples;Min_cycle;Max_cycle;Signal;HPM_P1;HPM_P2
2021/09/05 00:02:33;;;;;;;5.47;4.47;;;11.50;99.90;;;;;;6272979;28;20188;-76
2021/09/05 00:05:36;;;;;;;5.57;4.33;;;11.50;99.90;;;;;;6256432;28;20491;-77
2021/09/05 00:08:38;;;;;;;7.43;4.00;;;11.40;99.90;;;;;;6274500;28;20554;-77
2021/09/05 00:11:41;;;;;;;5.37;3.90;;;11.40;99.90;;;;;;6274520;28;20438;-77
2021/09/05 00:14:43;;;;;;;4.73;4.10;;;11.40;99.90;;;;;;6265374;28;20204;-77
2021/09/05 00:17:46;;;;;;;5.10;4.20;;;11.40;99.90;;;;;;6224012;28;20220;-78
2021/09/05 00:20:48;;;;;;;4.80;4.30;;;11.40;99.90;;;;;;6267468;28;20197;-78
2021/09/05 00:23:51;;;;;;;5.33;4.57;;;11.40;99.90;;;;;;6273179;28;20228;-78
2021/09/05 00:26:53;;;;;;;6.50;3.87;;;11.40;99.90;;;;;;6233733;28;20209;-78
2021/09/05 00:29:55;;;;;;;5.63;4.10;;;11.40;99.90;;;;;;6243282;28;20271;-77
2021/09/05 00:32:58;;;;;;;5.67;4.00;;;11.40;99.90;;;;;;6247966;28;20764;-78
2021/09/05 00:36:02;;;;;;;6.43;3.93;;;11.40;99.90;;;;;;6252546;28;20693;-77
2021/09/05 00:39:06;;;;;;;4.93;3.87;;;11.30;99.90;;;;;;6271995;28;20238;-77
2021/09/05 00:42:08;;;;;;;6.87;4.13;;;11.30;99.90;;;;;;6247899;28;20738;-77
2021/09/05 00:45:11;;;;;;;4.43;4.00;;;11.30;99.90;;;;;;6264124;28;20201;-77
2021/09/05 00:48:13;;;;;;;4.90;4.20;;;11.20;99.90;;;;;;6268277;28;20225;-77
2021/09/05 00:51:15;;;;;;;4.13;3.73;;;11.20;99.90;;;;;;6272243;28;20287;-76
2021/09/05 00:54:18;;;;;;;4.83;4.07;;;11.20;99.90;;;;;;6272494;28;20286;-77
2021/09/05 00:57:22;;;;;;;4.73;3.80;;;11.20;99.90;;;;;;6272107;28;20203;-77
2021/09/05 01:00:25;;;;;;;4.57;3.70;;;11.20;99.90;;;;;;6271984;28;20188;-77
2021/09/05 01:03:28;;;;;;;5.33;4.10;;;11.20;99.90;;;;;;6267153;28;20188;-76
2021/09/05 01:06:37;;;;;;;4.97;4.00;;;11.20;99.90;;;;;;6271923;28;20223;-76
2021/09/05 01:09:41;;;;;;;4.77;3.70;;;11.20;99.90;;;;;;6222278;28;20189;-76
2021/09/05 01:12:44;;;;;;;4.87;3.63;;;11.20;99.90;;;;;;6281312;28;20210;-77
2021/09/05 01:15:46;;;;;;;6.77;4.13;;;11.10;99.90;;;;;;6271784;28;20203;-77
2021/09/05 01:19:06;;;;;;;5.27;4.27;;;11.10;99.90;;;;;;6271420;28;20212;-77
2021/09/05 01:22:35;;;;;;;5.07;4.03;;;11.10;99.90;;;;;;6258364;28;20232;-77
2021/09/05 01:25:56;;;;;;;5.67;3.67;;;11.00;99.90;;;;;;6272784;28;20200;-76
2021/09/05 01:29:18;;;;;;;5.20;4.07;;;11.00;99.90;;;;;;6273085;28;20672;-77
2021/09/05 01:32:46;;;;;;;6.13;3.97;;;11.00;99.90;;;;;;6251970;28;20257;-77
2021/09/05 01:36:18;;;;;;;5.23;4.33;;;11.00;99.90;;;;;;6262229;28;21017;-76
2021/09/05 01:39:25;;;;;;;6.33;4.07;;;11.00;99.90;;;;;;6273071;28;20270;-77
2021/09/05 01:42:30;;;;;;;4.87;3.67;;;11.00;99.90;;;;;;6272752;28;20187;-77
2021/09/05 01:45:51;;;;;;;5.80;4.23;;;11.00;99.90;;;;;;6272662;28;20205;-77
2021/09/05 01:49:19;;;;;;;6.53;4.83;;;11.00;99.90;;;;;;6268985;28;20207;-76
2021/09/05 01:52:42;;;;;;;4.27;3.53;;;11.00;99.90;;;;;;6250745;28;20277;-77
2021/09/05 01:56:17;;;;;;;4.43;4.03;;;11.00;99.90;;;;;;6259518;28;20206;-77
2021/09/05 01:59:54;;;;;;;5.03;4.40;;;11.00;99.90;;;;;;6196481;28;20573;-76
2021/09/05 02:03:26;;;;;;;5.30;4.53;;;11.00;99.90;;;;;;6242335;28;20588;-77
2021/09/05 02:06:50;;;;;;;4.97;4.00;;;11.00;99.90;;;;;;6259258;28;20192;-76
2021/09/05 02:10:13;;;;;;;3.50;3.20;;;11.00;99.90;;;;;;6270485;28;20211;-77
2021/09/05 02:13:47;;;;;;;4.40;3.50;;;10.90;99.90;;;;;;6260942;28;20200;-77
2021/09/05 02:17:08;;;;;;;6.10;3.90;;;10.90;99.90;;;;;;6260544;28;20216;-77
2021/09/05 02:20:30;;;;;;;4.83;4.17;;;10.80;99.90;;;;;;6270824;28;20182;-78
2021/09/05 02:23:52;;;;;;;3.80;3.40;;;10.80;99.90;;;;;;6271508;28;20622;-78
2021/09/05 02:27:13;;;;;;;4.87;4.03;;;10.70;99.90;;;;;;6271517;28;20651;-78
2021/09/05 02:30:28;;;;;;;4.87;4.03;;;10.70;99.90;;;;;;6270224;28;20289;-77
2021/09/05 02:33:44;;;;;;;4.50;3.93;;;10.60;99.90;;;;;;6252414;28;20197;-77
2021/09/05 02:37:00;;;;;;;4.93;3.67;;;10.60;99.90;;;;;;6230526;28;20271;-77
2021/09/05 02:40:11;;;;;;;4.03;3.63;;;10.60;99.90;;;;;;6271710;28;20191;-77
2021/09/05 02:43:37;;;;;;;4.87;4.13;;;10.60;99.90;;;;;;6262254;28;20343;-77
2021/09/05 02:47:11;;;;;;;7.07;3.90;;;10.70;99.90;;;;;;6261940;28;20281;-77
2021/09/05 02:50:35;;;;;;;6.37;4.13;;;10.60;99.90;;;;;;6256769;28;20275;-78
2021/09/05 02:53:56;;;;;;;4.40;4.00;;;10.60;99.90;;;;;;6271578;28;20181;-78
2021/09/05 02:57:05;;;;;;;4.73;3.80;;;10.60;99.90;;;;;;6270708;28;20671;-78
2021/09/05 03:00:33;;;;;;;5.13;4.47;;;10.60;99.90;;;;;;6222675;28;20614;-78
2021/09/05 03:03:52;;;;;;;8.23;4.30;;;10.50;99.90;;;;;;6245234;28;20207;-78
2021/09/05 03:07:13;;;;;;;5.33;3.83;;;10.50;99.90;;;;;;6222634;28;20185;-78
2021/09/05 03:10:34;;;;;;;6.47;4.27;;;10.50;99.90;;;;;;6222936;28;20541;-77
2021/09/05 03:13:58;;;;;;;4.63;3.70;;;10.50;99.90;;;;;;6218853;28;20296;-78
2021/09/05 03:17:38;;;;;;;7.37;3.77;;;10.40;99.90;;;;;;6222127;28;20308;-77
2021/09/05 03:21:04;;;;;;;3.80;3.40;;;10.40;99.90;;;;;;6221032;28;20201;-77
2021/09/05 03:24:13;;;;;;;4.07;3.67;;;10.40;99.90;;;;;;6273382;28;20235;-77
2021/09/05 03:27:38;;;;;;;4.90;3.87;;;10.30;99.90;;;;;;6266046;28;20248;-77
2021/09/05 03:31:13;;;;;;;4.60;4.10;;;10.30;99.90;;;;;;6240074;28;20304;-77
2021/09/05 03:34:42;;;;;;;4.30;3.53;;;10.30;99.90;;;;;;6261277;28;20544;-77
2021/09/05 03:38:04;;;;;;;6.53;4.10;;;10.30;99.90;;;;;;6238956;28;20230;-77
2021/09/05 03:41:38;;;;;;;5.77;3.63;;;10.20;99.90;;;;;;6224812;28;20258;-77
2021/09/05 03:45:08;;;;;;;4.40;3.70;;;10.20;99.90;;;;;;6224918;28;20223;-78
2021/09/05 03:48:33;;;;;;;4.53;3.80;;;10.20;99.90;;;;;;6217070;28;20201;-78
2021/09/05 03:51:40;;;;;;;4.97;4.47;;;10.20;99.90;;;;;;6249556;28;20196;-77
2021/09/05 03:54:44;;;;;;;5.10;4.10;;;10.20;99.90;;;;;;6259321;28;20598;-78
2021/09/05 03:57:47;;;;;;;5.03;3.83;;;10.20;99.90;;;;;;6273479;28;20578;-78
2021/09/05 04:00:50;;;;;;;4.67;3.93;;;10.20;99.90;;;;;;6257258;28;20191;-77
2021/09/05 04:03:53;;;;;;;5.27;3.80;;;10.10;99.90;;;;;;6237314;28;20651;-78
2021/09/05 04:07:02;;;;;;;4.83;4.33;;;10.20;99.90;;;;;;6226465;28;20582;-78
2021/09/05 04:10:10;;;;;;;6.83;4.53;;;10.10;99.90;;;;;;6254180;28;20208;-78
2021/09/05 04:13:14;;;;;;;4.93;3.90;;;10.10;99.90;;;;;;6273528;28;20543;-77
2021/09/05 04:16:16;;;;;;;5.17;4.03;;;10.10;99.90;;;;;;6253809;28;20196;-77
2021/09/05 04:19:19;;;;;;;4.67;4.17;;;10.10;99.90;;;;;;6289761;28;20237;-77
2021/09/05 04:22:21;;;;;;;4.90;4.27;;;10.10;99.90;;;;;;6274253;28;20280;-77
2021/09/05 04:25:23;;;;;;;3.83;3.43;;;10.10;99.90;;;;;;6274441;28;20326;-77
2021/09/05 04:28:25;;;;;;;5.70;4.50;;;10.10;99.90;;;;;;6274851;28;20242;-75
2021/09/05 04:31:28;;;;;;;6.33;4.23;;;10.10;99.90;;;;;;6274352;28;20610;-77
2021/09/05 04:34:30;;;;;;;5.30;4.23;;;10.10;99.90;;;;;;6262371;28;20682;-77
2021/09/05 04:37:33;;;;;;;4.17;3.73;;;10.10;99.90;;;;;;6272117;28;20753;-81
2021/09/05 04:40:35;;;;;;;4.77;4.20;;;10.10;99.90;;;;;;6265720;28;20662;-79
2021/09/05 04:43:37;;;;;;;5.20;3.73;;;10.10;99.90;;;;;;6273453;28;20343;-77
2021/09/05 04:46:40;;;;;;;4.97;4.47;;;10.20;99.90;;;;;;6272789;28;20202;-76
2021/09/05 04:49:42;;;;;;;5.23;4.40;;;10.20;99.90;;;;;;6274992;28;20199;-76
2021/09/05 04:52:44;;;;;;;5.83;4.80;;;10.30;99.90;;;;;;6258511;28;20200;-77
2021/09/05 04:55:46;;;;;;;6.57;5.10;;;10.30;99.90;;;;;;6248990;28;20215;-77
2021/09/05 04:58:49;;;;;;;4.60;4.20;;;10.30;99.90;;;;;;6257742;28;20207;-77
2021/09/05 05:01:51;;;;;;;6.87;4.83;;;10.30;99.90;;;;;;6271729;28;20191;-77
2021/09/05 05:04:54;;;;;;;5.20;4.60;;;10.40;99.90;;;;;;6239195;28;20200;-77
2021/09/05 05:07:56;;;;;;;5.27;4.40;;;10.40;99.90;;;;;;6272894;28;20227;-77
2021/09/05 05:10:59;;;;;;;6.27;4.70;;;10.40;99.90;;;;;;6260681;28;20238;-76
2021/09/05 05:14:01;;;;;;;5.47;4.03;;;10.40;99.90;;;;;;6249770;28;21177;-78
2021/09/05 05:17:03;;;;;;;5.50;4.37;;;10.40;99.90;;;;;;6271480;28;20219;-78
2021/09/05 05:20:06;;;;;;;5.20;4.30;;;10.40;99.90;;;;;;6271795;28;20194;-77
2021/09/05 05:23:08;;;;;;;4.67;3.80;;;10.40;99.90;;;;;;6272421;28;20223;-75
2021/09/05 05:26:11;;;;;;;5.13;4.60;;;10.40;99.90;;;;;;6271929;28;20222;-77
2021/09/05 05:29:14;;;;;;;5.37;4.67;;;10.50;99.90;;;;;;6267825;28;20719;-75
2021/09/05 05:32:16;;;;;;;6.27;4.20;;;10.50;99.90;;;;;;6262708;28;20227;-75
2021/09/05 05:35:18;;;;;;;5.37;4.33;;;10.50;99.90;;;;;;6247760;28;20206;-76
2021/09/05 05:38:20;;;;;;;4.77;4.27;;;10.50;99.90;;;;;;6269517;28;20211;-74
2021/09/05 05:41:23;;;;;;;4.73;4.30;;;10.60;99.90;;;;;;6270227;28;20773;-77
2021/09/05 05:44:25;;;;;;;5.53;4.73;;;10.60;99.90;;;;;;6271075;28;20195;-76
2021/09/05 05:47:28;;;;;;;5.40;4.90;;;10.60;99.90;;;;;;6248941;28;20224;-76
2021/09/05 05:50:31;;;;;;;6.33;4.60;;;10.70;99.90;;;;;;6223543;28;20744;-76
2021/09/05 05:53:34;;;;;;;5.23;4.73;;;10.80;99.90;;;;;;6264851;28;20302;-73
2021/09/05 05:56:36;;;;;;;6.83;5.23;;;10.80;99.90;;;;;;6262724;28;20200;-75
2021/09/05 05:59:39;;;;;;;6.33;5.33;;;10.90;99.90;;;;;;6247315;28;20212;-74
2021/09/05 06:02:41;;;;;;;6.90;5.20;;;10.90;99.90;;;;;;6245412;28;20584;-75
2021/09/05 06:05:44;;;;;;;6.30;5.47;;;11.00;99.90;;;;;;6272575;28;20198;-75
2021/09/05 06:08:46;;;;;;;6.43;5.63;;;11.00;99.90;;;;;;6271053;28;20201;-75
2021/09/05 06:11:49;;;;;;;7.97;5.37;;;11.10;99.90;;;;;;6260651;28;20200;-75
2021/09/05 06:14:51;;;;;;;6.40;5.37;;;11.10;99.90;;;;;;6261026;28;20189;-73
2021/09/05 06:17:53;;;;;;;5.30;4.80;;;11.20;99.90;;;;;;6236028;28;20216;-73
2021/09/05 06:20:55;;;;;;;6.30;5.13;;;11.30;99.90;;;;;;6270503;28;20210;-73
2021/09/05 06:23:58;;;;;;;7.23;5.43;;;11.40;99.90;;;;;;6271266;28;20224;-73
2021/09/05 06:27:00;;;;;;;6.83;5.70;;;11.50;99.90;;;;;;6270262;28;20199;-73
2021/09/05 06:30:03;;;;;;;6.50;5.43;;;11.60;99.90;;;;;;6270085;28;20230;-73
2021/09/05 06:33:05;;;;;;;5.87;5.17;;;11.70;99.90;;;;;;6246194;28;20844;-73
2021/09/05 06:36:08;;;;;;;6.53;5.10;;;11.70;99.90;;;;;;6245291;28;20335;-73
2021/09/05 06:39:10;;;;;;;5.77;5.10;;;11.90;99.90;;;;;;6274118;28;20257;-73
2021/09/05 06:42:12;;;;;;;5.53;4.93;;;11.90;99.90;;;;;;6252425;28;20305;-73
2021/09/05 06:45:15;;;;;;;5.80;5.20;;;12.10;99.90;;;;;;6232144;28;20193;-73
2021/09/05 06:48:17;;;;;;;5.87;4.63;;;12.10;99.90;;;;;;6271346;28;20196;-74
2021/09/05 06:51:20;;;;;;;6.60;5.60;;;12.30;99.90;;;;;;6269799;28;20189;-72
2021/09/05 06:54:22;;;;;;;5.97;5.23;;;12.40;99.90;;;;;;6246810;28;20253;-74
2021/09/05 06:57:25;;;;;;;6.30;5.70;;;12.50;99.90;;;;;;6261569;28;20212;-74
2021/09/05 07:00:27;;;;;;;6.37;5.50;;;12.60;99.90;;;;;;6267273;28;20270;-74
2021/09/05 07:03:29;;;;;;;8.90;6.43;;;12.70;99.90;;;;;;6267200;28;20654;-74
2021/09/05 07:06:32;;;;;;;8.30;5.97;;;12.80;99.90;;;;;;6261775;28;20754;-73
2021/09/05 07:09:34;;;;;;;7.67;6.23;;;12.90;99.90;;;;;;6268161;28;20196;-73
2021/09/05 07:12:36;;;;;;;8.00;6.63;;;13.00;99.90;;;;;;6270574;28;20230;-75
2021/09/05 07:15:39;;;;;;;7.17;6.27;;;13.20;99.90;;;;;;6259028;28;20674;-76
2021/09/05 07:18:41;;;;;;;7.40;6.53;;;13.40;99.90;;;;;;6274106;28;20214;-76
2021/09/05 07:21:44;;;;;;;7.07;6.37;;;13.70;99.90;;;;;;6250758;28;20595;-75
2021/09/05 07:24:46;;;;;;;6.60;5.87;;;13.90;99.90;;;;;;6285506;28;20663;-74
2021/09/05 07:27:49;;;;;;;6.90;6.00;;;14.20;99.90;;;;;;6249275;28;20206;-75
2021/09/05 07:30:51;;;;;;;7.90;6.00;;;14.60;99.90;;;;;;6244424;28;20220;-75
2021/09/05 07:33:53;;;;;;;8.10;5.87;;;14.90;99.90;;;;;;6247428;28;20191;-75
2021/09/05 07:36:56;;;;;;;6.53;5.10;;;15.30;99.90;;;;;;6272181;28;20199;-76
2021/09/05 07:39:58;;;;;;;6.93;5.27;;;15.70;99.90;;;;;;6270378;28;20204;-75
2021/09/05 07:43:00;;;;;;;5.70;5.10;;;16.00;99.90;;;;;;6247496;28;20203;-76
2021/09/05 07:46:03;;;;;;;7.23;4.53;;;16.40;99.90;;;;;;6239290;28;20199;-75
2021/09/05 07:49:05;;;;;;;6.63;4.70;;;16.70;99.90;;;;;;6282593;28;20196;-76
2021/09/05 07:52:07;;;;;;;4.97;4.43;;;17.00;99.90;;;;;;6273396;28;20596;-75
2021/09/05 07:55:10;;;;;;;4.90;4.40;;;17.40;99.90;;;;;;6274711;28;20191;-77
2021/09/05 07:58:12;;;;;;;4.80;4.30;;;17.70;99.90;;;;;;6274013;28;20694;-75
2021/09/05 08:01:15;;;;;;;6.40;4.60;;;18.10;99.90;;;;;;6272940;28;20272;-75
2021/09/05 08:04:18;;;;;;;5.70;5.10;;;18.50;99.90;;;;;;6264920;28;20195;-76
2021/09/05 08:07:20;;;;;;;6.33;5.53;;;18.80;99.90;;;;;;6273639;28;20211;-76
2021/09/05 08:10:22;;;;;;;6.17;5.23;;;19.20;99.90;;;;;;6278575;28;20191;-76
2021/09/05 08:13:24;;;;;;;6.20;5.47;;;19.60;99.90;;;;;;6240442;28;20212;-77
2021/09/05 08:16:27;;;;;;;6.37;5.37;;;20.00;99.90;;;;;;6266857;28;20214;-76
2021/09/05 08:19:29;;;;;;;6.60;5.90;;;20.30;99.90;;;;;;6272999;28;20232;-76
2021/09/05 08:22:31;;;;;;;7.67;5.87;;;20.80;99.90;;;;;;6258534;28;20319;-76
2021/09/05 08:25:34;;;;;;;7.20;6.10;;;21.20;99.90;;;;;;6273248;28;20198;-76
2021/09/05 08:28:36;;;;;;;7.20;6.17;;;21.60;99.90;;;;;;6272913;28;20219;-77
2021/09/05 08:31:39;;;;;;;8.87;6.40;;;22.00;99.90;;;;;;6269578;28;20215;-77
2021/09/05 08:34:41;;;;;;;6.63;5.97;;;22.40;99.50;;;;;;6264504;28;20346;-79
2021/09/05 08:37:44;;;;;;;7.17;6.20;;;22.80;98.50;;;;;;6269545;28;20211;-79
2021/09/05 08:40:48;;;;;;;8.37;6.07;;;23.10;97.50;;;;;;6270258;28;20762;-79
2021/09/05 08:43:51;;;;;;;7.30;6.60;;;23.40;96.90;;;;;;6256014;28;20181;-79
2021/09/05 08:46:54;;;;;;;6.73;6.03;;;23.60;95.00;;;;;;6264060;28;20196;-79
2021/09/05 08:49:57;;;;;;;6.67;5.80;;;23.90;94.70;;;;;;6263703;28;20200;-80
2021/09/05 08:53:01;;;;;;;6.20;5.60;;;24.20;94.60;;;;;;6256631;28;20663;-79
2021/09/05 08:56:04;;;;;;;7.13;5.80;;;24.50;93.20;;;;;;6272041;28;20196;-79
2021/09/05 08:59:06;;;;;;;8.57;5.83;;;24.90;92.10;;;;;;6271713;28;20525;-79
2021/09/05 09:02:08;;;;;;;6.57;5.50;;;25.20;91.50;;;;;;6271226;28;20191;-79
2021/09/05 09:05:12;;;;;;;6.40;5.80;;;25.50;91.20;;;;;;6249997;28;20273;-79
2021/09/05 09:08:15;;;;;;;6.47;5.87;;;25.70;90.70;;;;;;6269177;28;20200;-79
2021/09/05 09:11:17;;;;;;;7.05;5.72;;;25.90;88.60;;;;;;6271823;28;20203;-79
2021/09/05 09:14:42;;;;;;;7.57;5.88;;;25.90;88.00;;;;;;6236081;28;20889;-79
2021/09/05 09:17:45;;;;;;;7.05;5.28;;;26.00;86.00;;;;;;6266390;28;20648;-79
2021/09/05 09:20:47;;;;;;;7.47;6.35;;;26.20;86.10;;;;;;6253267;28;20215;-79
2021/09/05 09:23:50;;;;;;;7.32;6.25;;;26.30;79.20;;;;;;6253863;28;20698;-78
2021/09/05 09:27:03;;;;;;;6.13;5.60;;;26.30;76.20;;;;;;6268269;28;20315;-79
2021/09/05 09:30:14;;;;;;;7.57;5.63;;;26.50;78.60;;;;;;6249722;28;20659;-80
2021/09/05 09:33:23;;;;;;;7.57;5.70;;;26.70;80.20;;;;;;6262015;28;20187;-78
2021/09/05 09:36:28;;;;;;;6.57;5.97;;;27.00;79.90;;;;;;6205470;28;20204;-78
2021/09/05 09:39:31;;;;;;;6.00;5.35;;;27.10;77.50;;;;;;6268699;28;20211;-80
2021/09/05 09:42:38;;;;;;;9.90;5.60;;;27.00;78.50;;;;;;6269779;28;20187;-80
2021/09/05 09:45:40;;;;;;;6.60;5.90;;;27.00;76.90;;;;;;6227735;28;20200;-79
2021/09/05 09:48:48;;;;;;;6.30;5.43;;;27.00;78.40;;;;;;6242857;28;20199;-80
2021/09/05 09:52:00;;;;;;;6.75;6.05;;;27.20;79.40;;;;;;6272638;28;20196;-80
2021/09/05 09:55:04;;;;;;;5.93;5.43;;;27.20;77.40;;;;;;6271343;28;20536;-79
2021/09/05 09:58:08;;;;;;;8.68;6.68;;;27.40;77.50;;;;;;6272171;28;20203;-79
2021/09/05 10:01:15;;;;;;;9.20;7.03;;;27.40;72.00;;;;;;6270799;28;20225;-79
2021/09/05 10:04:19;;;;;;;7.40;6.32;;;27.00;66.90;;;;;;6258428;28;20196;-80
2021/09/05 10:07:25;;;;;;;6.50;5.90;;;26.80;66.80;;;;;;6254145;28;20330;-80
2021/09/05 10:10:27;;;;;;;6.93;6.20;;;26.80;70.20;;;;;;6246855;28;20274;-79
2021/09/05 10:13:32;;;;;;;7.97;6.47;;;26.80;73.40;;;;;;6280869;28;20187;-79
2021/09/05 10:16:35;;;;;;;7.97;6.35;;;26.90;73.30;;;;;;6247596;28;20733;-80
2021/09/05 10:19:39;;;;;;;7.80;6.97;;;26.80;71.00;;;;;;6269816;28;20301;-80
2021/09/05 10:22:43;;;;;;;12.93;10.13;;;26.70;73.50;;;;;;6252736;28;20702;-80
2021/09/05 10:25:52;;;;;;;7.65;6.85;;;26.90;69.10;;;;;;6269214;28;20197;-80
2021/09/05 10:28:56;;;;;;;8.38;7.20;;;26.80;70.40;;;;;;6270805;28;20559;-80
2021/09/05 10:32:00;;;;;;;9.15;7.15;;;26.80;67.30;;;;;;6269260;28;20290;-79
2021/09/05 10:35:25;;;;;;;6.90;5.70;;;27.00;66.70;;;;;;6246015;28;20694;-79
2021/09/05 10:38:32;;;;;;;7.55;6.15;;;27.40;71.50;;;;;;6236870;28;20688;-79
2021/09/05 10:41:49;;;;;;;8.90;7.63;;;27.70;69.90;;;;;;6285537;28;20202;-80
2021/09/05 10:45:07;;;;;;;14.63;12.30;;;28.00;67.30;;;;;;6253148;28;20589;-79
2021/09/05 10:48:29;;;;;;;7.47;6.75;;;27.80;63.30;;;;;;6253783;28;20297;-79
2021/09/05 10:51:35;;;;;;;7.70;6.80;;;27.50;62.00;;;;;;6252786;28;20210;-79
2021/09/05 10:54:48;;;;;;;7.35;6.65;;;27.50;65.70;;;;;;6226754;28;20202;-79
2021/09/05 10:58:01;;;;;;;9.43;7.22;;;28.00;66.20;;;;;;6268310;28;20207;-79
2021/09/05 11:01:18;;;;;;;8.60;7.63;;;27.80;60.50;;;;;;6238295;28;20216;-79
2021/09/05 11:04:43;;;;;;;9.23;7.07;;;27.80;60.20;;;;;;6273653;28;20199;-79
2021/09/05 11:07:45;;;;;;;7.93;7.03;;;27.60;61.80;;;;;;6269061;28;20234;-79
2021/09/05 11:10:49;;;;;;;7.45;6.75;;;27.50;60.00;;;;;;6268832;28;20647;-80
2021/09/05 11:13:53;;;;;;;9.40;7.80;;;27.80;60.50;;;;;;6267377;28;20200;-80
2021/09/05 11:16:56;;;;;;;8.35;7.55;;;28.00;58.00;;;;;;6248158;28;20272;-80
2021/09/05 11:20:13;;;;;;;9.23;7.40;;;28.00;57.80;;;;;;6252932;28;20220;-80
2021/09/05 11:23:18;;;;;;;8.48;7.35;;;28.20;58.70;;;;;;6269668;28;20271;-79
2021/09/05 11:26:20;;;;;;;8.60;7.75;;;28.30;61.50;;;;;;6268996;28;20199;-79
2021/09/05 11:29:25;;;;;;;9.45;7.85;;;28.10;58.20;;;;;;6240151;28;20274;-80
2021/09/05 11:32:28;;;;;;;8.70;7.80;;;28.20;59.00;;;;;;6252237;28;20544;-80
2021/09/05 11:35:42;;;;;;;9.13;8.23;;;28.00;56.30;;;;;;6260305;28;20188;-79
2021/09/05 11:38:46;;;;;;;10.15;8.95;;;27.70;56.10;;;;;;6266743;28;20214;-79
2021/09/05 11:41:53;;;;;;;8.90;8.02;;;27.60;57.50;;;;;;6251053;28;20278;-80
2021/09/05 11:45:04;;;;;;;8.15;7.35;;;27.70;58.70;;;;;;6269854;28;20195;-79
2021/09/05 11:48:08;;;;;;;9.32;7.93;;;28.20;60.70;;;;;;6269321;28;20216;-80
2021/09/05 11:51:11;;;;;;;10.43;7.78;;;28.40;57.60;;;;;;6263341;28;20184;-81
2021/09/05 11:54:15;;;;;;;7.78;6.97;;;28.20;55.20;;;;;;6274067;28;20230;-80
2021/09/05 11:57:17;;;;;;;8.00;7.30;;;28.20;55.50;;;;;;6243174;28;20366;-80
2021/09/05 12:00:39;;;;;;;10.15;7.57;;;28.30;58.00;;;;;;6277725;28;20207;-80
2021/09/05 12:03:42;;;;;;;8.27;7.47;;;28.70;55.10;;;;;;6261989;28;20861;-80
2021/09/05 12:06:47;;;;;;;8.65;7.47;;;28.70;54.50;;;;;;6265480;28;20198;-81
2021/09/05 12:10:12;;;;;;;10.07;8.00;;;28.70;56.30;;;;;;6256552;28;20202;-80
2021/09/05 12:13:15;;;;;;;8.07;7.28;;;28.60;55.00;;;;;;6274301;28;20203;-80
2021/09/05 12:16:23;;;;;;;9.40;7.22;;;28.20;55.70;;;;;;6256886;28;20192;-80
2021/09/05 12:19:26;;;;;;;7.95;7.22;;;28.50;56.00;;;;;;6252638;28;20207;-81
2021/09/05 12:22:47;;;;;;;8.00;7.13;;;28.80;56.00;;;;;;6271932;28;20301;-80
2021/09/05 12:25:51;;;;;;;8.07;7.28;;;29.50;56.70;;;;;;6256804;28;20214;-80
2021/09/05 12:28:59;;;;;;;8.52;7.72;;;30.10;54.10;;;;;;6272966;28;20254;-80
2021/09/05 12:32:03;;;;;;;7.30;6.57;;;30.30;54.50;;;;;;6271994;28;20620;-80
2021/09/05 12:35:08;;;;;;;8.13;7.38;;;30.40;51.80;;;;;;6232464;28;20200;-81
2021/09/05 12:38:22;;;;;;;7.72;6.90;;;30.30;51.90;;;;;;6278067;28;20199;-80
2021/09/05 12:41:29;;;;;;;7.93;7.10;;;30.50;50.90;;;;;;6254442;28;20204;-81
2021/09/05 12:44:40;;;;;;;8.15;7.20;;;30.10;50.10;;;;;;6277743;28;20195;-80
2021/09/05 12:47:44;;;;;;;7.68;6.72;;;30.00;50.80;;;;;;6257169;28;20556;-81
2021/09/05 12:51:02;;;;;;;8.13;7.22;;;30.20;49.90;;;;;;6238925;28;20730;-80
2021/09/05 12:54:06;;;;;;;9.07;7.38;;;30.10;49.30;;;;;;6252880;28;20211;-81
2021/09/05 12:57:09;;;;;;;7.88;7.07;;;30.00;49.00;;;;;;6268810;28;20203;-80
2021/09/05 13:00:12;;;;;;;7.47;6.78;;;30.20;49.90;;;;;;6267527;28;20212;-81
2021/09/05 13:03:14;;;;;;;8.40;7.10;;;30.30;48.80;;;;;;6262024;28;20188;-80
2021/09/05 13:06:17;;;;;;;7.35;6.65;;;30.40;48.50;;;;;;6270751;28;20179;-81
2021/09/05 13:09:20;;;;;;;8.63;6.78;;;30.50;48.20;;;;;;6232989;28;20208;-80
2021/09/05 13:12:23;;;;;;;7.50;6.68;;;30.90;47.10;;;;;;6282862;28;20202;-81
2021/09/05 13:15:26;;;;;;;7.13;6.30;;;30.80;47.00;;;;;;6258319;28;20200;-80
2021/09/05 13:18:29;;;;;;;7.28;6.57;;;30.80;46.80;;;;;;6259841;28;20671;-80
2021/09/05 13:21:33;;;;;;;7.72;7.00;;;31.30;46.80;;;;;;6271941;28;20694;-81
2021/09/05 13:24:35;;;;;;;8.10;6.65;;;31.60;45.90;;;;;;6266393;28;20243;-80
2021/09/05 13:27:38;;;;;;;8.30;6.72;;;31.50;46.80;;;;;;6248710;28;20545;-80
2021/09/05 13:30:41;;;;;;;7.68;6.47;;;32.10;47.80;;;;;;6263453;28;20262;-80
2021/09/05 13:33:43;;;;;;;8.02;6.70;;;32.40;47.30;;;;;;6262035;28;20301;-81
2021/09/05 13:36:45;;;;;;;8.18;7.38;;;32.60;45.50;;;;;;6267055;28;20195;-80
2021/09/05 13:39:48;;;;;;;7.30;6.60;;;32.70;44.70;;;;;;6271652;28;20215;-81
2021/09/05 13:42:50;;;;;;;9.25;6.88;;;33.00;45.30;;;;;;6271443;28;20219;-81
2021/09/05 13:45:54;;;;;;;8.45;7.18;;;33.30;44.70;;;;;;6271577;28;20195;-80
2021/09/05 13:48:57;;;;;;;6.80;6.20;;;33.50;46.70;;;;;;6272374;28;20187;-80
2021/09/05 13:52:00;;;;;;;7.22;6.53;;;33.90;43.80;;;;;;6271359;28;20651;-81
2021/09/05 13:55:05;;;;;;;8.13;6.80;;;34.00;42.30;;;;;;6272405;28;20262;-81
2021/09/05 13:58:09;;;;;;;7.90;7.07;;;33.90;42.40;;;;;;6272682;28;20175;-80
2021/09/05 14:01:12;;;;;;;10.07;6.88;;;33.90;40.70;;;;;;6270770;28;20273;-80
2021/09/05 14:04:15;;;;;;;8.93;6.70;;;34.00;41.90;;;;;;6241107;28;20196;-80
2021/09/05 14:07:19;;;;;;;7.68;6.82;;;33.90;41.10;;;;;;6262408;28;20631;-80
2021/09/05 14:10:21;;;;;;;8.57;6.80;;;33.30;42.20;;;;;;6270725;28;20203;-81
2021/09/05 14:13:24;;;;;;;7.40;6.68;;;32.70;43.20;;;;;;6244403;28;20267;-80
2021/09/05 14:16:27;;;;;;;9.25;6.45;;;32.20;44.70;;;;;;6253510;28;20207;-80
2021/09/05 14:19:30;;;;;;;9.00;6.68;;;31.30;46.90;;;;;;6272038;28;20200;-79
2021/09/05 14:22:33;;;;;;;7.53;6.72;;;30.30;48.50;;;;;;6270588;28;20231;-79
2021/09/05 14:25:38;;;;;;;7.82;6.43;;;29.40;49.40;;;;;;6221588;28;20275;-80
2021/09/05 14:28:45;;;;;;;7.32;6.45;;;28.80;50.90;;;;;;6280355;28;20210;-80
2021/09/05 14:32:04;;;;;;;11.07;6.70;;;28.20;52.00;;;;;;6270492;28;20219;-79
2021/09/05 14:53:56;;;;;;;7.05;6.35;;;30.40;46.30;;;;;;6271624;28;20192;-79
2021/09/05 14:55:06;;;;;;;7.65;6.18;;;30.70;46.90;;;;;;6258920;28;20288;-79
2021/09/05 14:58:11;;;;;;;8.48;6.20;;;31.50;45.00;;;;;;6269800;28;20203;-79
2021/09/05 15:01:17;;;;;;;6.75;6.05;;;32.10;46.20;;;;;;6253486;28;20206;-79
2021/09/05 15:11:01;;;;;;;8.10;5.88;;;32.70;43.80;;;;;;6257853;28;20545;-80
2021/09/05 15:14:07;;;;;;;6.63;6.03;;;32.80;43.60;;;;;;6256270;28;20539;-79
2021/09/05 15:17:09;;;;;;;7.07;5.47;;;31.80;42.00;;;;;;6270245;28;20673;-79
2021/09/05 15:20:14;;;;;;;7.55;6.32;;;30.30;44.00;;;;;;6229149;28;20331;-79
2021/09/05 15:23:20;;;;;;;9.90;6.47;;;29.00;46.50;;;;;;6272493;28;20322;-80
2021/09/05 15:26:25;;;;;;;8.35;6.38;;;27.90;50.90;;;;;;6263281;28;20321;-79
2021/09/05 15:33:01;;;;;;;6.50;5.82;;;26.50;55.00;;;;;;6273557;28;20564;-79
2021/09/05 15:52:35;;;;;;;6.72;5.93;;;24.00;63.50;;;;;;6224808;28;20279;-79
2021/09/05 15:55:43;;;;;;;7.72;6.00;;;23.70;65.30;;;;;;6257630;28;20205;-78
2021/09/05 15:58:54;;;;;;;7.07;6.37;;;23.50;66.70;;;;;;6242068;28;20192;-79
2021/09/05 16:18:22;;;;;;;6.07;5.47;;;22.50;70.50;;;;;;6264084;28;20207;-78
2021/09/05 16:21:25;;;;;;;6.20;5.60;;;22.50;71.20;;;;;;6273429;28;20292;-78
2021/09/05 16:24:28;;;;;;;7.07;5.70;;;22.40;71.60;;;;;;6273202;28;20222;-79
2021/09/05 16:27:34;;;;;;;8.03;5.20;;;22.20;72.80;;;;;;6274396;28;20179;-79
2021/09/05 16:30:40;;;;;;;5.93;5.33;;;22.10;73.90;;;;;;6272091;28;20222;-79
2021/09/05 16:33:49;;;;;;;8.63;6.37;;;22.00;74.00;;;;;;6262203;28;20562;-79
2021/09/05 16:37:12;;;;;;;7.03;5.83;;;21.90;74.80;;;;;;6289816;28;20195;-79
2021/09/05 16:43:30;;;;;;;6.63;6.03;;;21.80;76.50;;;;;;6267580;28;20208;-79
2021/09/05 16:46:33;;;;;;;6.90;6.10;;;21.60;77.50;;;;;;6256155;28;20200;-79
2021/09/05 16:49:36;;;;;;;6.33;5.70;;;21.40;78.70;;;;;;6273934;28;20186;-79
2021/09/05 16:52:40;;;;;;;7.70;6.60;;;21.30;79.90;;;;;;6252473;28;20193;-78
2021/09/05 16:55:44;;;;;;;8.40;5.90;;;21.10;81.50;;;;;;6243359;28;20230;-78
2021/09/05 16:58:46;;;;;;;6.53;5.70;;;20.80;83.00;;;;;;6266596;28;20184;-79
2021/09/05 17:01:48;;;;;;;7.90;6.17;;;20.60;84.50;;;;;;6266474;28;20255;-78
2021/09/05 17:04:54;;;;;;;7.40;6.20;;;20.50;85.50;;;;;;6253574;28;20737;-78
2021/09/05 17:07:58;;;;;;;8.67;5.70;;;20.40;86.70;;;;;;6224281;28;20204;-78
2021/09/05 17:11:03;;;;;;;6.80;5.97;;;20.20;88.30;;;;;;6268466;28;20287;-78
2021/09/05 17:14:07;;;;;;;6.60;5.90;;;20.00;89.30;;;;;;6279010;28;20191;-79
2021/09/05 17:17:11;;;;;;;9.37;6.80;;;19.90;90.30;;;;;;6262034;28;20191;-78